Terminal Aerodrome Forecast
Issued by NWS

Home | Current Version | Previous Version | Text Only | Print | Product List | Glossary Off
Versions: 1 2 3 4 5 6 7 8 9 10 11 12 13 14 15

228
FTUS43 KMPX 240309 AAA
TAFAXN
TAF AMD
KAXN 240309Z 2403/2424 14007KT P6SM OVC008
     FM240600 23009KT P6SM BKN250
     FM241600 30015G22KT P6SM FEW050 SCT250=

USA.gov is the U.S. government's official web portal to all federal, state and local government web resources and services.